sensor_id;sensor_type;location;lat;lon;timestamp;temperature;humidity
11107;DHT22;5607;48.302;14.294;2023-12-04T00:02:04;-3.70;99.90
11107;DHT22;5607;48.302;14.294;2023-12-04T00:04:51;-3.70;99.90
11107;DHT22;5607;48.302;14.294;2023-12-04T00:07:37;-3.70;99.90
11107;DHT22;5607;48.302;14.294;2023-12-04T00:10:24;-3.70;99.90
11107;DHT22;5607;48.302;14.294;2023-12-04T00:13:11;-3.70;99.90
11107;DHT22;5607;48.302;14.294;2023-12-04T00:15:58;-3.60;99.90
11107;DHT22;5607;48.302;14.294;2023-12-04T00:18:44;-3.70;99.90
11107;DHT22;5607;48.302;14.294;2023-12-04T00:21:31;-3.70;99.90
11107;DHT22;5607;48.302;14.294;2023-12-04T00:24:18;-3.70;99.90
11107;DHT22;5607;48.302;14.294;2023-12-04T00:27:05;-3.80;99.90
11107;DHT22;5607;48.302;14.294;2023-12-04T00:29:52;-3.90;99.90
11107;DHT22;5607;48.302;14.294;2023-12-04T00:32:39;-3.90;99.90
11107;DHT22;5607;48.302;14.294;2023-12-04T00:35:26;-4.00;99.90
11107;DHT22;5607;48.302;14.294;2023-12-04T00:38:12;-4.00;99.90
11107;DHT22;5607;48.302;14.294;2023-12-04T00:40:59;-4.10;99.90
11107;DHT22;5607;48.302;14.294;2023-12-04T00:43:46;-4.00;99.90
11107;DHT22;5607;48.302;14.294;2023-12-04T00:46:33;-4.10;99.90
11107;DHT22;5607;48.302;14.294;2023-12-04T00:49:20;-4.10;99.90
11107;DHT22;5607;48.302;14.294;2023-12-04T00:52:06;-4.20;99.90
11107;DHT22;5607;48.302;14.294;2023-12-04T00:54:53;-4.20;99.90
11107;DHT22;5607;48.302;14.294;2023-12-04T00:57:40;-4.20;99.90
11107;DHT22;5607;48.302;14.294;2023-12-04T01:00:28;-4.20;99.90
11107;DHT22;5607;48.302;14.294;2023-12-04T01:03:14;-4.20;99.90
11107;DHT22;5607;48.302;14.294;2023-12-04T01:06:01;-4.20;99.90
11107;DHT22;5607;48.302;14.294;2023-12-04T01:08:48;-4.20;99.90
11107;DHT22;5607;48.302;14.294;2023-12-04T01:11:35;-4.20;99.90
11107;DHT22;5607;48.302;14.294;2023-12-04T01:14:23;-4.30;99.90
11107;DHT22;5607;48.302;14.294;2023-12-04T01:17:09;-4.40;99.90
11107;DHT22;5607;48.302;14.294;2023-12-04T01:19:56;-4.40;99.90
11107;DHT22;5607;48.302;14.294;2023-12-04T01:22:43;-4.40;99.90
11107;DHT22;5607;48.302;14.294;2023-12-04T01:25:30;-4.40;99.90
11107;DHT22;5607;48.302;14.294;2023-12-04T01:28:17;-4.40;99.90
11107;DHT22;5607;48.302;14.294;2023-12-04T01:31:22;-4.50;99.90
11107;DHT22;5607;48.302;14.294;2023-12-04T01:34:09;-4.50;99.90
11107;DHT22;5607;48.302;14.294;2023-12-04T01:36:56;-4.50;99.90
11107;DHT22;5607;48.302;14.294;2023-12-04T01:39:42;-4.40;99.90
11107;DHT22;5607;48.302;14.294;2023-12-04T01:42:29;-4.40;99.90
11107;DHT22;5607;48.302;14.294;2023-12-04T01:45:16;-4.40;99.90
11107;DHT22;5607;48.302;14.294;2023-12-04T01:48:03;-4.40;99.90
11107;DHT22;5607;48.302;14.294;2023-12-04T01:50:52;-4.50;99.90
11107;DHT22;5607;48.302;14.294;2023-12-04T01:53:40;-4.50;99.90
11107;DHT22;5607;48.302;14.294;2023-12-04T01:56:30;-4.50;99.90
11107;DHT22;5607;48.302;14.294;2023-12-04T01:59:17;-4.70;99.90
11107;DHT22;5607;48.302;14.294;2023-12-04T02:02:04;-4.70;99.90
11107;DHT22;5607;48.302;14.294;2023-12-04T02:04:55;-4.80;99.90
11107;DHT22;5607;48.302;14.294;2023-12-04T02:07:44;-4.90;99.90
11107;DHT22;5607;48.302;14.294;2023-12-04T02:10:32;-5.00;99.90
11107;DHT22;5607;48.302;14.294;2023-12-04T02:13:19;-5.10;99.90
11107;DHT22;5607;48.302;14.294;2023-12-04T02:16:09;-5.10;99.90
11107;DHT22;5607;48.302;14.294;2023-12-04T02:18:58;-5.20;99.90
11107;DHT22;5607;48.302;14.294;2023-12-04T02:21:45;-5.20;99.90
11107;DHT22;5607;48.302;14.294;2023-12-04T02:24:32;-5.30;99.90
11107;DHT22;5607;48.302;14.294;2023-12-04T02:27:37;-5.30;99.90
11107;DHT22;5607;48.302;14.294;2023-12-04T02:30:28;-5.40;99.90
11107;DHT22;5607;48.302;14.294;2023-12-04T02:33:18;-5.50;99.90
11107;DHT22;5607;48.302;14.294;2023-12-04T02:36:12;-5.50;99.90
11107;DHT22;5607;48.302;14.294;2023-12-04T02:39:00;-5.50;99.90
11107;DHT22;5607;48.302;14.294;2023-12-04T02:41:49;-5.60;99.90
11107;DHT22;5607;48.302;14.294;2023-12-04T02:44:37;-5.60;99.90
11107;DHT22;5607;48.302;14.294;2023-12-04T02:47:24;-5.60;99.90
11107;DHT22;5607;48.302;14.294;2023-12-04T02:50:11;-5.60;99.90
11107;DHT22;5607;48.302;14.294;2023-12-04T02:52:58;-5.60;99.90
11107;DHT22;5607;48.302;14.294;2023-12-04T02:55:44;-5.60;99.90
11107;DHT22;5607;48.302;14.294;2023-12-04T02:58:31;-5.60;99.90
11107;DHT22;5607;48.302;14.294;2023-12-04T03:01:20;-5.60;99.90
11107;DHT22;5607;48.302;14.294;2023-12-04T03:04:07;-5.70;99.90
11107;DHT22;5607;48.302;14.294;2023-12-04T03:06:53;-5.80;99.90
11107;DHT22;5607;48.302;14.294;2023-12-04T03:09:40;-5.80;99.90
11107;DHT22;5607;48.302;14.294;2023-12-04T03:12:27;-5.90;99.90
11107;DHT22;5607;48.302;14.294;2023-12-04T03:15:14;-5.90;99.90
11107;DHT22;5607;48.302;14.294;2023-12-04T03:18:02;-5.80;99.90
11107;DHT22;5607;48.302;14.294;2023-12-04T03:20:50;-5.90;99.90
11107;DHT22;5607;48.302;14.294;2023-12-04T03:23:37;-5.90;99.90
11107;DHT22;5607;48.302;14.294;2023-12-04T03:26:23;-5.90;99.90
11107;DHT22;5607;48.302;14.294;2023-12-04T03:29:10;-5.80;99.90
11107;DHT22;5607;48.302;14.294;2023-12-04T03:31:57;-5.80;99.90
11107;DHT22;5607;48.302;14.294;2023-12-04T03:34:44;-5.80;99.90
11107;DHT22;5607;48.302;14.294;2023-12-04T03:37:30;-5.80;99.90
11107;DHT22;5607;48.302;14.294;2023-12-04T03:40:17;-5.70;99.90
11107;DHT22;5607;48.302;14.294;2023-12-04T03:43:04;-5.70;99.90
11107;DHT22;5607;48.302;14.294;2023-12-04T03:45:51;-5.70;99.90
11107;DHT22;5607;48.302;14.294;2023-12-04T03:48:38;-5.60;99.90
11107;DHT22;5607;48.302;14.294;2023-12-04T03:51:25;-5.60;99.90
11107;DHT22;5607;48.302;14.294;2023-12-04T03:54:11;-5.60;99.90
11107;DHT22;5607;48.302;14.294;2023-12-04T03:57:00;-5.60;99.90
11107;DHT22;5607;48.302;14.294;2023-12-04T03:59:46;-5.60;99.90
11107;DHT22;5607;48.302;14.294;2023-12-04T04:02:33;-5.50;99.90
11107;DHT22;5607;48.302;14.294;2023-12-04T04:05:20;-5.50;99.90
11107;DHT22;5607;48.302;14.294;2023-12-04T04:08:07;-5.50;99.90
11107;DHT22;5607;48.302;14.294;2023-12-04T04:10:54;-5.50;99.90
11107;DHT22;5607;48.302;14.294;2023-12-04T04:13:40;-5.50;99.90
11107;DHT22;5607;48.302;14.294;2023-12-04T04:16:27;-5.40;99.90
11107;DHT22;5607;48.302;14.294;2023-12-04T04:19:14;-5.40;99.90
11107;DHT22;5607;48.302;14.294;2023-12-04T04:22:01;-5.40;99.90
11107;DHT22;5607;48.302;14.294;2023-12-04T04:24:48;-5.40;99.90
11107;DHT22;5607;48.302;14.294;2023-12-04T04:27:36;-5.40;99.90
11107;DHT22;5607;48.302;14.294;2023-12-04T04:30:22;-5.50;99.90
11107;DHT22;5607;48.302;14.294;2023-12-04T04:33:10;-5.50;99.90
11107;DHT22;5607;48.302;14.294;2023-12-04T04:35:57;-5.40;99.90
11107;DHT22;5607;48.302;14.294;2023-12-04T04:38:44;-5.50;99.90
11107;DHT22;5607;48.302;14.294;2023-12-04T04:41:31;-5.50;99.90
11107;DHT22;5607;48.302;14.294;2023-12-04T04:44:18;-5.50;99.90
11107;DHT22;5607;48.302;14.294;2023-12-04T04:47:04;-5.50;99.90
11107;DHT22;5607;48.302;14.294;2023-12-04T04:49:51;-5.40;99.90
11107;DHT22;5607;48.302;14.294;2023-12-04T04:52:38;-5.40;99.90
11107;DHT22;5607;48.302;14.294;2023-12-04T04:55:25;-5.50;99.90
11107;DHT22;5607;48.302;14.294;2023-12-04T04:58:11;-5.40;99.90
11107;DHT22;5607;48.302;14.294;2023-12-04T05:00:58;-5.50;99.90
11107;DHT22;5607;48.302;14.294;2023-12-04T05:03:45;-5.50;99.90
11107;DHT22;5607;48.302;14.294;2023-12-04T05:06:32;-5.50;99.90
11107;DHT22;5607;48.302;14.294;2023-12-04T05:09:18;-5.50;99.90
11107;DHT22;5607;48.302;14.294;2023-12-04T05:12:05;-5.40;99.90
11107;DHT22;5607;48.302;14.294;2023-12-04T05:14:52;-5.40;99.90
11107;DHT22;5607;48.302;14.294;2023-12-04T05:17:39;-5.40;99.90
11107;DHT22;5607;48.302;14.294;2023-12-04T05:20:26;-5.40;99.90
11107;DHT22;5607;48.302;14.294;2023-12-04T05:23:13;-5.40;99.90
11107;DHT22;5607;48.302;14.294;2023-12-04T05:26:00;-5.40;99.90
11107;DHT22;5607;48.302;14.294;2023-12-04T05:28:47;-5.40;99.90
11107;DHT22;5607;48.302;14.294;2023-12-04T05:31:33;-5.50;99.90
11107;DHT22;5607;48.302;14.294;2023-12-04T05:34:20;-5.60;99.90
11107;DHT22;5607;48.302;14.294;2023-12-04T05:37:07;-5.60;99.90
11107;DHT22;5607;48.302;14.294;2023-12-04T05:39:53;-5.70;99.90
11107;DHT22;5607;48.302;14.294;2023-12-04T05:42:40;-5.70;99.90
11107;DHT22;5607;48.302;14.294;2023-12-04T05:45:27;-5.80;99.90
11107;DHT22;5607;48.302;14.294;2023-12-04T05:48:14;-5.90;99.90
11107;DHT22;5607;48.302;14.294;2023-12-04T05:51:00;-6.00;99.90
11107;DHT22;5607;48.302;14.294;2023-12-04T05:53:47;-6.00;99.90
11107;DHT22;5607;48.302;14.294;2023-12-04T05:56:33;-6.00;99.90
11107;DHT22;5607;48.302;14.294;2023-12-04T05:59:20;-6.00;99.90
11107;DHT22;5607;48.302;14.294;2023-12-04T06:02:07;-6.00;99.90
11107;DHT22;5607;48.302;14.294;2023-12-04T06:04:54;-5.90;99.90
11107;DHT22;5607;48.302;14.294;2023-12-04T06:07:40;-6.00;99.90
11107;DHT22;5607;48.302;14.294;2023-12-04T06:10:28;-6.00;99.90
11107;DHT22;5607;48.302;14.294;2023-12-04T06:13:14;-6.00;99.90
11107;DHT22;5607;48.302;14.294;2023-12-04T06:16:01;-5.90;99.90
11107;DHT22;5607;48.302;14.294;2023-12-04T06:18:48;-5.90;99.90
11107;DHT22;5607;48.302;14.294;2023-12-04T06:21:34;-5.80;99.90
11107;DHT22;5607;48.302;14.294;2023-12-04T06:24:21;-5.80;99.90
11107;DHT22;5607;48.302;14.294;2023-12-04T06:27:08;-5.60;99.90
11107;DHT22;5607;48.302;14.294;2023-12-04T06:30:00;-5.70;99.90
11107;DHT22;5607;48.302;14.294;2023-12-04T06:32:47;-5.60;99.90
11107;DHT22;5607;48.302;14.294;2023-12-04T06:35:34;-5.60;99.90
11107;DHT22;5607;48.302;14.294;2023-12-04T06:38:23;-5.50;99.90
11107;DHT22;5607;48.302;14.294;2023-12-04T06:41:11;-5.40;99.90
11107;DHT22;5607;48.302;14.294;2023-12-04T06:43:59;-5.40;99.90
11107;DHT22;5607;48.302;14.294;2023-12-04T06:46:48;-5.40;99.90
11107;DHT22;5607;48.302;14.294;2023-12-04T06:49:38;-5.40;99.90
11107;DHT22;5607;48.302;14.294;2023-12-04T06:52:24;-5.30;99.90
11107;DHT22;5607;48.302;14.294;2023-12-04T06:55:12;-5.30;99.90
11107;DHT22;5607;48.302;14.294;2023-12-04T06:57:59;-5.20;99.90
11107;DHT22;5607;48.302;14.294;2023-12-04T07:00:46;-5.10;99.90
11107;DHT22;5607;48.302;14.294;2023-12-04T07:03:32;-5.10;99.90
11107;DHT22;5607;48.302;14.294;2023-12-04T07:06:19;-5.30;99.90
11107;DHT22;5607;48.302;14.294;2023-12-04T07:09:06;-5.40;99.90
11107;DHT22;5607;48.302;14.294;2023-12-04T07:11:55;-5.40;99.90
11107;DHT22;5607;48.302;14.294;2023-12-04T07:14:42;-5.40;99.90
11107;DHT22;5607;48.302;14.294;2023-12-04T07:17:28;-5.30;99.90
11107;DHT22;5607;48.302;14.294;2023-12-04T07:20:15;-5.00;99.90
11107;DHT22;5607;48.302;14.294;2023-12-04T07:23:01;-4.90;99.90
11107;DHT22;5607;48.302;14.294;2023-12-04T07:25:48;-4.90;99.90
11107;DHT22;5607;48.302;14.294;2023-12-04T07:28:35;-5.00;99.90
11107;DHT22;5607;48.302;14.294;2023-12-04T07:31:21;-5.00;99.90
11107;DHT22;5607;48.302;14.294;2023-12-04T07:34:08;-5.00;99.90
11107;DHT22;5607;48.302;14.294;2023-12-04T07:36:55;-4.90;99.90
11107;DHT22;5607;48.302;14.294;2023-12-04T07:39:43;-4.80;99.90
11107;DHT22;5607;48.302;14.294;2023-12-04T07:42:32;-4.80;99.90
11107;DHT22;5607;48.302;14.294;2023-12-04T07:45:18;-4.80;99.90
11107;DHT22;5607;48.302;14.294;2023-12-04T07:48:05;-4.70;99.90
11107;DHT22;5607;48.302;14.294;2023-12-04T07:50:52;-4.50;99.90
11107;DHT22;5607;48.302;14.294;2023-12-04T07:53:39;-4.50;99.90
11107;DHT22;5607;48.302;14.294;2023-12-04T07:56:26;-4.40;99.90
11107;DHT22;5607;48.302;14.294;2023-12-04T07:59:12;-4.30;99.90
11107;DHT22;5607;48.302;14.294;2023-12-04T08:01:59;-4.20;99.90
11107;DHT22;5607;48.302;14.294;2023-12-04T08:04:45;-4.10;99.90
11107;DHT22;5607;48.302;14.294;2023-12-04T08:07:32;-4.00;99.90
11107;DHT22;5607;48.302;14.294;2023-12-04T08:10:18;-3.80;99.90
11107;DHT22;5607;48.302;14.294;2023-12-04T08:13:05;-3.70;99.90
11107;DHT22;5607;48.302;14.294;2023-12-04T08:15:52;-3.60;99.90
11107;DHT22;5607;48.302;14.294;2023-12-04T08:18:38;-3.50;99.90
11107;DHT22;5607;48.302;14.294;2023-12-04T08:21:25;-3.40;99.90
11107;DHT22;5607;48.302;14.294;2023-12-04T08:24:11;-3.20;99.90
11107;DHT22;5607;48.302;14.294;2023-12-04T08:26:59;-3.10;99.90
11107;DHT22;5607;48.302;14.294;2023-12-04T08:29:45;-3.00;99.90
11107;DHT22;5607;48.302;14.294;2023-12-04T08:32:32;-2.90;99.90
11107;DHT22;5607;48.302;14.294;2023-12-04T08:35:19;-3.00;99.90
11107;DHT22;5607;48.302;14.294;2023-12-04T08:38:06;-2.90;99.90
11107;DHT22;5607;48.302;14.294;2023-12-04T08:40:53;-2.60;99.90
11107;DHT22;5607;48.302;14.294;2023-12-04T08:43:40;-2.60;99.90
11107;DHT22;5607;48.302;14.294;2023-12-04T08:46:27;-2.40;99.90
11107;DHT22;5607;48.302;14.294;2023-12-04T08:49:13;-2.20;99.90
11107;DHT22;5607;48.302;14.294;2023-12-04T08:52:00;-2.30;99.90
11107;DHT22;5607;48.302;14.294;2023-12-04T08:54:46;-2.20;99.90
11107;DHT22;5607;48.302;14.294;2023-12-04T08:57:33;-2.30;99.90
11107;DHT22;5607;48.302;14.294;2023-12-04T09:00:19;-2.30;99.90
11107;DHT22;5607;48.302;14.294;2023-12-04T09:03:07;-2.40;99.90
11107;DHT22;5607;48.302;14.294;2023-12-04T09:05:54;-2.40;99.90
11107;DHT22;5607;48.302;14.294;2023-12-04T09:08:41;-2.60;99.90
11107;DHT22;5607;48.302;14.294;2023-12-04T09:11:28;-2.70;99.90
11107;DHT22;5607;48.302;14.294;2023-12-04T09:14:15;-2.60;99.90
11107;DHT22;5607;48.302;14.294;2023-12-04T09:17:02;-2.40;99.90
11107;DHT22;5607;48.302;14.294;2023-12-04T09:19:49;-2.40;99.90
11107;DHT22;5607;48.302;14.294;2023-12-04T09:22:36;-2.30;99.90
11107;DHT22;5607;48.302;14.294;2023-12-04T09:25:25;-2.30;99.90
11107;DHT22;5607;48.302;14.294;2023-12-04T09:28:11;-2.30;99.90
11107;DHT22;5607;48.302;14.294;2023-12-04T09:30:58;-2.20;99.90
11107;DHT22;5607;48.302;14.294;2023-12-04T09:33:45;-2.10;99.90
11107;DHT22;5607;48.302;14.294;2023-12-04T09:36:33;-1.90;99.90
11107;DHT22;5607;48.302;14.294;2023-12-04T09:39:20;-1.80;99.90
11107;DHT22;5607;48.302;14.294;2023-12-04T09:42:07;-1.50;99.90
11107;DHT22;5607;48.302;14.294;2023-12-04T09:44:56;-1.50;99.90
11107;DHT22;5607;48.302;14.294;2023-12-04T09:47:44;-1.50;99.90
11107;DHT22;5607;48.302;14.294;2023-12-04T09:50:33;-1.40;99.90
11107;DHT22;5607;48.302;14.294;2023-12-04T09:53:21;-1.30;99.90
11107;DHT22;5607;48.302;14.294;2023-12-04T09:56:11;-1.10;99.90
11107;DHT22;5607;48.302;14.294;2023-12-04T09:58:58;-1.30;99.90
11107;DHT22;5607;48.302;14.294;2023-12-04T10:01:48;-1.10;99.90
11107;DHT22;5607;48.302;14.294;2023-12-04T10:04:37;-1.00;99.90
11107;DHT22;5607;48.302;14.294;2023-12-04T10:07:23;-1.00;99.90
11107;DHT22;5607;48.302;14.294;2023-12-04T10:10:10;-1.00;99.90
11107;DHT22;5607;48.302;14.294;2023-12-04T10:12:57;-1.00;99.90
11107;DHT22;5607;48.302;14.294;2023-12-04T10:15:48;-1.00;99.90
11107;DHT22;5607;48.302;14.294;2023-12-04T10:18:35;-1.00;99.90
11107;DHT22;5607;48.302;14.294;2023-12-04T10:21:22;-1.00;99.90
11107;DHT22;5607;48.302;14.294;2023-12-04T10:24:08;-0.90;99.90
11107;DHT22;5607;48.302;14.294;2023-12-04T10:26:55;-0.90;99.90
11107;DHT22;5607;48.302;14.294;2023-12-04T10:29:49;-0.80;99.90
11107;DHT22;5607;48.302;14.294;2023-12-04T10:32:41;-0.70;99.90
11107;DHT22;5607;48.302;14.294;2023-12-04T10:35:31;-0.50;99.90
11107;DHT22;5607;48.302;14.294;2023-12-04T10:38:19;-0.40;99.90
11107;DHT22;5607;48.302;14.294;2023-12-04T10:41:12;-0.30;99.90
11107;DHT22;5607;48.302;14.294;2023-12-04T10:43:59;-0.20;99.90
11107;DHT22;5607;48.302;14.294;2023-12-04T10:46:47;-0.10;99.90
11107;DHT22;5607;48.302;14.294;2023-12-04T10:49:33;-0.20;99.90
11107;DHT22;5607;48.302;14.294;2023-12-04T10:52:22;-0.20;99.90
11107;DHT22;5607;48.302;14.294;2023-12-04T10:55:10;-0.40;99.90
11107;DHT22;5607;48.302;14.294;2023-12-04T10:57:59;-0.40;99.90
11107;DHT22;5607;48.302;14.294;2023-12-04T11:00:48;-0.40;99.90
11107;DHT22;5607;48.302;14.294;2023-12-04T11:03:47;-0.30;99.90
11107;DHT22;5607;48.302;14.294;2023-12-04T11:06:34;-0.30;99.90
11107;DHT22;5607;48.302;14.294;2023-12-04T11:09:26;-0.10;99.90
11107;DHT22;5607;48.302;14.294;2023-12-04T11:12:16;-0.30;99.90
11107;DHT22;5607;48.302;14.294;2023-12-04T11:15:13;-0.10;99.90
11107;DHT22;5607;48.302;14.294;2023-12-04T11:18:02;-0.10;99.90
11107;DHT22;5607;48.302;14.294;2023-12-04T11:20:59;-0.10;99.90
11107;DHT22;5607;48.302;14.294;2023-12-04T11:23:52;-0.10;99.90
11107;DHT22;5607;48.302;14.294;2023-12-04T11:26:42;0.00;99.90
11107;DHT22;5607;48.302;14.294;2023-12-04T11:29:29;0.10;99.90
11107;DHT22;5607;48.302;14.294;2023-12-04T11:32:18;0.30;99.90
11107;DHT22;5607;48.302;14.294;2023-12-04T11:35:07;0.40;99.90
11107;DHT22;5607;48.302;14.294;2023-12-04T11:38:00;0.30;99.90
11107;DHT22;5607;48.302;14.294;2023-12-04T11:40:46;0.40;99.90
11107;DHT22;5607;48.302;14.294;2023-12-04T11:43:33;0.60;99.90
11107;DHT22;5607;48.302;14.294;2023-12-04T11:46:22;0.80;99.90
11107;DHT22;5607;48.302;14.294;2023-12-04T11:49:30;0.70;99.90
11107;DHT22;5607;48.302;14.294;2023-12-04T11:52:17;0.70;99.90
11107;DHT22;5607;48.302;14.294;2023-12-04T11:55:23;0.80;99.90
11107;DHT22;5607;48.302;14.294;2023-12-04T11:58:12;0.60;99.90
11107;DHT22;5607;48.302;14.294;2023-12-04T12:00:58;0.60;99.90
11107;DHT22;5607;48.302;14.294;2023-12-04T12:03:50;0.50;99.90
11107;DHT22;5607;48.302;14.294;2023-12-04T12:06:37;0.50;99.90
11107;DHT22;5607;48.302;14.294;2023-12-04T12:09:24;0.50;99.90
11107;DHT22;5607;48.302;14.294;2023-12-04T12:12:12;0.50;99.90
11107;DHT22;5607;48.302;14.294;2023-12-04T12:15:00;0.40;99.90
11107;DHT22;5607;48.302;14.294;2023-12-04T12:17:47;0.40;99.90
11107;DHT22;5607;48.302;14.294;2023-12-04T12:20:36;0.60;99.90
11107;DHT22;5607;48.302;14.294;2023-12-04T12:23:23;0.30;99.90
11107;DHT22;5607;48.302;14.294;2023-12-04T12:26:11;0.40;99.90
11107;DHT22;5607;48.302;14.294;2023-12-04T12:28:58;0.60;99.90
11107;DHT22;5607;48.302;14.294;2023-12-04T12:31:44;0.60;99.90
11107;DHT22;5607;48.302;14.294;2023-12-04T12:34:32;0.60;99.90
11107;DHT22;5607;48.302;14.294;2023-12-04T12:37:22;0.60;99.90
11107;DHT22;5607;48.302;14.294;2023-12-04T12:40:09;0.50;99.90
11107;DHT22;5607;48.302;14.294;2023-12-04T12:43:05;0.50;99.90
11107;DHT22;5607;48.302;14.294;2023-12-04T12:45:53;0.50;99.90
11107;DHT22;5607;48.302;14.294;2023-12-04T12:48:39;0.60;99.90
11107;DHT22;5607;48.302;14.294;2023-12-04T12:51:28;0.60;99.90
11107;DHT22;5607;48.302;14.294;2023-12-04T12:54:16;0.60;99.90
11107;DHT22;5607;48.302;14.294;2023-12-04T12:57:02;0.70;99.90
11107;DHT22;5607;48.302;14.294;2023-12-04T12:59:49;0.70;99.90
11107;DHT22;5607;48.302;14.294;2023-12-04T13:02:36;0.70;99.90
11107;DHT22;5607;48.302;14.294;2023-12-04T13:05:23;0.40;99.90
11107;DHT22;5607;48.302;14.294;2023-12-04T13:08:10;0.30;99.90
11107;DHT22;5607;48.302;14.294;2023-12-04T13:10:57;0.30;99.90
11107;DHT22;5607;48.302;14.294;2023-12-04T13:13:44;0.20;99.90
11107;DHT22;5607;48.302;14.294;2023-12-04T13:16:30;0.10;99.90
11107;DHT22;5607;48.302;14.294;2023-12-04T13:19:17;-0.20;99.90
11107;DHT22;5607;48.302;14.294;2023-12-04T13:22:03;-0.40;99.90
11107;DHT22;5607;48.302;14.294;2023-12-04T13:24:50;-0.70;99.90
11107;DHT22;5607;48.302;14.294;2023-12-04T13:27:37;-0.70;99.90
11107;DHT22;5607;48.302;14.294;2023-12-04T13:30:27;-0.80;99.90
11107;DHT22;5607;48.302;14.294;2023-12-04T13:33:13;-0.90;99.90
11107;DHT22;5607;48.302;14.294;2023-12-04T13:36:00;-1.00;99.90
11107;DHT22;5607;48.302;14.294;2023-12-04T13:38:46;-1.10;99.90
11107;DHT22;5607;48.302;14.294;2023-12-04T13:41:33;-1.40;99.90
11107;DHT22;5607;48.302;14.294;2023-12-04T13:44:38;-1.50;99.90
11107;DHT22;5607;48.302;14.294;2023-12-04T13:47:24;-1.60;99.90
11107;DHT22;5607;48.302;14.294;2023-12-04T13:50:11;-1.70;99.90
11107;DHT22;5607;48.302;14.294;2023-12-04T13:52:58;-2.00;99.90
11107;DHT22;5607;48.302;14.294;2023-12-04T13:55:44;-2.10;99.90
11107;DHT22;5607;48.302;14.294;2023-12-04T13:58:54;-2.20;99.90
11107;DHT22;5607;48.302;14.294;2023-12-04T14:01:43;-2.20;99.90
11107;DHT22;5607;48.302;14.294;2023-12-04T14:04:30;-2.20;99.90
11107;DHT22;5607;48.302;14.294;2023-12-04T14:07:16;-2.40;99.90
11107;DHT22;5607;48.302;14.294;2023-12-04T14:10:04;-2.20;99.90
11107;DHT22;5607;48.302;14.294;2023-12-04T14:12:52;-2.20;99.90
11107;DHT22;5607;48.302;14.294;2023-12-04T14:15:39;-2.00;99.90
11107;DHT22;5607;48.302;14.294;2023-12-04T14:18:26;-1.80;99.90
11107;DHT22;5607;48.302;14.294;2023-12-04T14:21:12;-1.80;99.90
11107;DHT22;5607;48.302;14.294;2023-12-04T14:23:59;-1.90;99.90
11107;DHT22;5607;48.302;14.294;2023-12-04T14:26:46;-1.90;99.90
11107;DHT22;5607;48.302;14.294;2023-12-04T14:29:32;-2.10;99.90
11107;DHT22;5607;48.302;14.294;2023-12-04T14:32:19;-2.20;99.90
11107;DHT22;5607;48.302;14.294;2023-12-04T14:35:06;-2.30;99.90
11107;DHT22;5607;48.302;14.294;2023-12-04T14:37:53;-2.20;99.90
11107;DHT22;5607;48.302;14.294;2023-12-04T14:40:40;-2.30;99.90
11107;DHT22;5607;48.302;14.294;2023-12-04T14:43:27;-2.20;99.90
11107;DHT22;5607;48.302;14.294;2023-12-04T14:46:15;-2.20;99.90
11107;DHT22;5607;48.302;14.294;2023-12-04T14:49:02;-2.30;99.90
11107;DHT22;5607;48.302;14.294;2023-12-04T14:51:49;-2.40;99.90
11107;DHT22;5607;48.302;14.294;2023-12-04T14:54:36;-2.40;99.90
11107;DHT22;5607;48.302;14.294;2023-12-04T14:57:52;-2.20;99.90
11107;DHT22;5607;48.302;14.294;2023-12-04T15:00:58;-2.20;99.90
11107;DHT22;5607;48.302;14.294;2023-12-04T15:03:57;-2.10;99.90
11107;DHT22;5607;48.302;14.294;2023-12-04T15:07:03;-2.20;99.90
11107;DHT22;5607;48.302;14.294;2023-12-04T15:10:08;-2.10;99.90
11107;DHT22;5607;48.302;14.294;2023-12-04T15:13:30;-2.20;99.90
11107;DHT22;5607;48.302;14.294;2023-12-04T15:16:35;-2.10;99.90
11107;DHT22;5607;48.302;14.294;2023-12-04T15:19:32;-2.10;99.90
11107;DHT22;5607;48.302;14.294;2023-12-04T15:22:24;-2.00;99.90
11107;DHT22;5607;48.302;14.294;2023-12-04T15:25:11;-2.00;99.90
11107;DHT22;5607;48.302;14.294;2023-12-04T15:27:58;-1.90;99.90
11107;DHT22;5607;48.302;14.294;2023-12-04T15:30:47;-1.80;99.90
11107;DHT22;5607;48.302;14.294;2023-12-04T15:33:34;-1.90;99.90
11107;DHT22;5607;48.302;14.294;2023-12-04T15:36:21;-1.80;99.90
11107;DHT22;5607;48.302;14.294;2023-12-04T15:39:08;-1.80;99.90
11107;DHT22;5607;48.302;14.294;2023-12-04T15:41:55;-1.80;99.90
11107;DHT22;5607;48.302;14.294;2023-12-04T15:44:42;-1.70;99.90
11107;DHT22;5607;48.302;14.294;2023-12-04T15:47:28;-1.60;99.90
11107;DHT22;5607;48.302;14.294;2023-12-04T15:50:15;-1.60;99.90
11107;DHT22;5607;48.302;14.294;2023-12-04T15:53:01;-1.70;99.90
11107;DHT22;5607;48.302;14.294;2023-12-04T15:55:48;-1.50;99.90
11107;DHT22;5607;48.302;14.294;2023-12-04T15:58:35;-1.50;99.90
11107;DHT22;5607;48.302;14.294;2023-12-04T16:01:21;-1.60;99.90
11107;DHT22;5607;48.302;14.294;2023-12-04T16:04:09;-1.70;99.90
11107;DHT22;5607;48.302;14.294;2023-12-04T16:06:55;-1.70;99.90
11107;DHT22;5607;48.302;14.294;2023-12-04T16:09:42;-1.60;99.90
11107;DHT22;5607;48.302;14.294;2023-12-04T16:12:29;-1.60;99.90
11107;DHT22;5607;48.302;14.294;2023-12-04T16:15:16;-1.50;99.90
11107;DHT22;5607;48.302;14.294;2023-12-04T16:18:03;-1.50;99.90
11107;DHT22;5607;48.302;14.294;2023-12-04T16:20:53;-1.60;99.90
11107;DHT22;5607;48.302;14.294;2023-12-04T16:23:39;-1.60;99.90
11107;DHT22;5607;48.302;14.294;2023-12-04T16:26:26;-1.60;99.90
11107;DHT22;5607;48.302;14.294;2023-12-04T16:29:12;-1.50;99.90
11107;DHT22;5607;48.302;14.294;2023-12-04T16:31:59;-1.60;99.90
11107;DHT22;5607;48.302;14.294;2023-12-04T16:34:46;-1.60;99.90
11107;DHT22;5607;48.302;14.294;2023-12-04T16:37:33;-1.60;99.90
11107;DHT22;5607;48.302;14.294;2023-12-04T16:40:20;-1.70;99.90
11107;DHT22;5607;48.302;14.294;2023-12-04T16:43:07;-1.60;99.90
11107;DHT22;5607;48.302;14.294;2023-12-04T16:45:53;-1.60;99.90
11107;DHT22;5607;48.302;14.294;2023-12-04T16:48:43;-1.60;99.90
11107;DHT22;5607;48.302;14.294;2023-12-04T16:51:30;-1.40;99.90
11107;DHT22;5607;48.302;14.294;2023-12-04T16:54:17;-1.40;99.90
11107;DHT22;5607;48.302;14.294;2023-12-04T16:57:03;-1.40;99.90
11107;DHT22;5607;48.302;14.294;2023-12-04T16:59:50;-1.40;99.90
11107;DHT22;5607;48.302;14.294;2023-12-04T17:02:37;-1.40;99.90
11107;DHT22;5607;48.302;14.294;2023-12-04T17:05:24;-1.40;99.90
11107;DHT22;5607;48.302;14.294;2023-12-04T17:08:11;-1.40;99.90
11107;DHT22;5607;48.302;14.294;2023-12-04T17:10:57;-1.40;99.90
11107;DHT22;5607;48.302;14.294;2023-12-04T17:13:44;-1.40;99.90
11107;DHT22;5607;48.302;14.294;2023-12-04T17:16:31;-1.40;99.90
11107;DHT22;5607;48.302;14.294;2023-12-04T17:19:18;-1.40;99.90
11107;DHT22;5607;48.302;14.294;2023-12-04T17:22:06;-1.40;99.90
11107;DHT22;5607;48.302;14.294;2023-12-04T17:24:53;-1.30;99.90
11107;DHT22;5607;48.302;14.294;2023-12-04T17:27:39;-1.30;99.90
11107;DHT22;5607;48.302;14.294;2023-12-04T17:30:27;-1.30;99.90
11107;DHT22;5607;48.302;14.294;2023-12-04T17:33:13;-1.30;99.90
11107;DHT22;5607;48.302;14.294;2023-12-04T17:36:00;-1.40;99.90
11107;DHT22;5607;48.302;14.294;2023-12-04T17:38:47;-1.50;99.90
11107;DHT22;5607;48.302;14.294;2023-12-04T17:41:34;-1.50;99.90
11107;DHT22;5607;48.302;14.294;2023-12-04T17:44:21;-1.50;99.90